sensor_id;sensor_type;location;lat;lon;timestamp;temperature;humidity
2174;DHT22;1093;51.424;11.764;2022-10-15T00:02:15;15.00;1.40
2174;DHT22;1093;51.424;11.764;2022-10-15T00:04:42;15.00;1.40
2174;DHT22;1093;51.424;11.764;2022-10-15T00:07:09;15.00;1.40
2174;DHT22;1093;51.424;11.764;2022-10-15T00:09:38;14.90;1.40
2174;DHT22;1093;51.424;11.764;2022-10-15T00:12:05;14.90;1.40
2174;DHT22;1093;51.424;11.764;2022-10-15T00:14:31;15.00;1.40
2174;DHT22;1093;51.424;11.764;2022-10-15T00:16:58;15.10;1.40
2174;DHT22;1093;51.424;11.764;2022-10-15T00:19:25;15.10;1.40
2174;DHT22;1093;51.424;11.764;2022-10-15T00:21:52;15.10;1.40
2174;DHT22;1093;51.424;11.764;2022-10-15T00:24:19;15.10;1.40
2174;DHT22;1093;51.424;11.764;2022-10-15T00:26:47;15.00;1.40
2174;DHT22;1093;51.424;11.764;2022-10-15T00:29:14;15.00;1.40
2174;DHT22;1093;51.424;11.764;2022-10-15T00:31:41;15.00;1.40
2174;DHT22;1093;51.424;11.764;2022-10-15T00:34:08;15.00;1.40
2174;DHT22;1093;51.424;11.764;2022-10-15T00:36:36;15.00;1.40
2174;DHT22;1093;51.424;11.764;2022-10-15T00:39:05;15.00;1.40
2174;DHT22;1093;51.424;11.764;2022-10-15T00:41:34;14.90;1.40
2174;DHT22;1093;51.424;11.764;2022-10-15T00:47:14;14.90;1.40
2174;DHT22;1093;51.424;11.764;2022-10-15T00:49:44;14.90;1.40
2174;DHT22;1093;51.424;11.764;2022-10-15T00:52:17;14.90;1.40
2174;DHT22;1093;51.424;11.764;2022-10-15T00:54:47;14.90;1.40
2174;DHT22;1093;51.424;11.764;2022-10-15T00:57:15;14.90;1.40
2174;DHT22;1093;51.424;11.764;2022-10-15T00:59:45;14.80;1.40
2174;DHT22;1093;51.424;11.764;2022-10-15T01:02:14;14.80;1.40
2174;DHT22;1093;51.424;11.764;2022-10-15T01:04:43;14.80;1.40
2174;DHT22;1093;51.424;11.764;2022-10-15T01:07:11;14.80;1.40
2174;DHT22;1093;51.424;11.764;2022-10-15T01:09:38;14.80;1.40
2174;DHT22;1093;51.424;11.764;2022-10-15T01:12:10;14.80;1.40
2174;DHT22;1093;51.424;11.764;2022-10-15T01:14:50;14.80;1.40
2174;DHT22;1093;51.424;11.764;2022-10-15T01:17:26;14.80;1.40
2174;DHT22;1093;51.424;11.764;2022-10-15T01:20:22;14.70;1.40
2174;DHT22;1093;51.424;11.764;2022-10-15T01:23:07;14.80;1.40
2174;DHT22;1093;51.424;11.764;2022-10-15T01:25:44;14.80;1.40
2174;DHT22;1093;51.424;11.764;2022-10-15T01:28:21;14.80;1.40
2174;DHT22;1093;51.424;11.764;2022-10-15T01:30:57;14.80;1.40
2174;DHT22;1093;51.424;11.764;2022-10-15T01:33:31;14.80;1.40
2174;DHT22;1093;51.424;11.764;2022-10-15T01:36:07;14.80;1.40
2174;DHT22;1093;51.424;11.764;2022-10-15T01:38:46;14.80;1.40
2174;DHT22;1093;51.424;11.764;2022-10-15T01:41:19;14.80;1.40
2174;DHT22;1093;51.424;11.764;2022-10-15T01:43:55;14.80;1.40
2174;DHT22;1093;51.424;11.764;2022-10-15T01:46:28;14.70;1.40
2174;DHT22;1093;51.424;11.764;2022-10-15T01:48:59;14.70;1.40
2174;DHT22;1093;51.424;11.764;2022-10-15T01:51:29;14.70;1.40
2174;DHT22;1093;51.424;11.764;2022-10-15T01:53:58;14.70;1.40
2174;DHT22;1093;51.424;11.764;2022-10-15T01:56:27;14.80;1.40
2174;DHT22;1093;51.424;11.764;2022-10-15T01:58:55;14.80;1.40
2174;DHT22;1093;51.424;11.764;2022-10-15T02:01:22;14.80;1.40
2174;DHT22;1093;51.424;11.764;2022-10-15T02:03:51;14.70;1.40
2174;DHT22;1093;51.424;11.764;2022-10-15T02:06:23;14.70;1.40
2174;DHT22;1093;51.424;11.764;2022-10-15T02:09:04;14.70;1.40
2174;DHT22;1093;51.424;11.764;2022-10-15T02:11:40;14.60;1.40
2174;DHT22;1093;51.424;11.764;2022-10-15T02:14:13;14.60;1.40
2174;DHT22;1093;51.424;11.764;2022-10-15T02:16:44;14.60;1.40
2174;DHT22;1093;51.424;11.764;2022-10-15T02:19:19;14.60;1.40
2174;DHT22;1093;51.424;11.764;2022-10-15T02:21:51;14.60;1.40
2174;DHT22;1093;51.424;11.764;2022-10-15T02:24:22;14.50;1.40
2174;DHT22;1093;51.424;11.764;2022-10-15T02:26:51;14.60;1.40
2174;DHT22;1093;51.424;11.764;2022-10-15T02:29:22;14.60;1.40
2174;DHT22;1093;51.424;11.764;2022-10-15T02:31:50;14.60;1.40
2174;DHT22;1093;51.424;11.764;2022-10-15T02:34:21;14.50;1.40
2174;DHT22;1093;51.424;11.764;2022-10-15T02:36:51;14.50;1.40
2174;DHT22;1093;51.424;11.764;2022-10-15T02:39:21;14.50;1.40
2174;DHT22;1093;51.424;11.764;2022-10-15T02:41:49;14.50;1.40
2174;DHT22;1093;51.424;11.764;2022-10-15T02:44:16;14.50;1.40
2174;DHT22;1093;51.424;11.764;2022-10-15T02:46:43;14.50;1.40
2174;DHT22;1093;51.424;11.764;2022-10-15T02:49:10;14.50;1.40
2174;DHT22;1093;51.424;11.764;2022-10-15T02:51:38;14.50;1.40
2174;DHT22;1093;51.424;11.764;2022-10-15T02:54:07;14.50;1.40
2174;DHT22;1093;51.424;11.764;2022-10-15T02:56:34;14.50;1.40
2174;DHT22;1093;51.424;11.764;2022-10-15T02:59:03;14.40;1.40
2174;DHT22;1093;51.424;11.764;2022-10-15T03:01:31;14.50;1.40
2174;DHT22;1093;51.424;11.764;2022-10-15T03:03:59;14.40;1.40
2174;DHT22;1093;51.424;11.764;2022-10-15T03:06:26;14.40;1.40
2174;DHT22;1093;51.424;11.764;2022-10-15T03:08:54;14.40;1.40
2174;DHT22;1093;51.424;11.764;2022-10-15T03:11:21;14.40;1.40
2174;DHT22;1093;51.424;11.764;2022-10-15T03:13:48;14.40;1.40
2174;DHT22;1093;51.424;11.764;2022-10-15T03:16:15;14.50;1.40
2174;DHT22;1093;51.424;11.764;2022-10-15T03:18:42;14.40;1.40
2174;DHT22;1093;51.424;11.764;2022-10-15T03:21:09;14.40;1.40
2174;DHT22;1093;51.424;11.764;2022-10-15T03:23:36;14.40;1.40
2174;DHT22;1093;51.424;11.764;2022-10-15T03:26:04;14.50;1.40
2174;DHT22;1093;51.424;11.764;2022-10-15T03:28:31;14.40;1.40
2174;DHT22;1093;51.424;11.764;2022-10-15T03:30:58;14.40;1.40
2174;DHT22;1093;51.424;11.764;2022-10-15T03:33:25;14.40;1.40
2174;DHT22;1093;51.424;11.764;2022-10-15T03:35:53;14.40;1.40
2174;DHT22;1093;51.424;11.764;2022-10-15T03:38:19;14.40;1.40
2174;DHT22;1093;51.424;11.764;2022-10-15T03:40:46;14.40;1.40
2174;DHT22;1093;51.424;11.764;2022-10-15T03:43:16;14.40;1.40
2174;DHT22;1093;51.424;11.764;2022-10-15T03:45:42;14.40;1.40
2174;DHT22;1093;51.424;11.764;2022-10-15T03:48:09;14.30;1.40
2174;DHT22;1093;51.424;11.764;2022-10-15T03:50:36;14.30;1.40
2174;DHT22;1093;51.424;11.764;2022-10-15T03:53:03;14.30;1.40
2174;DHT22;1093;51.424;11.764;2022-10-15T03:55:31;14.20;1.40
2174;DHT22;1093;51.424;11.764;2022-10-15T03:57:58;14.30;1.40
2174;DHT22;1093;51.424;11.764;2022-10-15T04:00:27;14.20;1.40
2174;DHT22;1093;51.424;11.764;2022-10-15T04:02:54;14.20;1.40
2174;DHT22;1093;51.424;11.764;2022-10-15T04:05:21;14.20;1.40
2174;DHT22;1093;51.424;11.764;2022-10-15T04:07:48;14.20;1.40
2174;DHT22;1093;51.424;11.764;2022-10-15T04:10:15;14.20;1.40
2174;DHT22;1093;51.424;11.764;2022-10-15T04:12:41;14.20;1.40
2174;DHT22;1093;51.424;11.764;2022-10-15T04:15:09;14.20;1.40
2174;DHT22;1093;51.424;11.764;2022-10-15T04:17:37;14.20;1.40
2174;DHT22;1093;51.424;11.764;2022-10-15T04:20:05;14.30;1.40
2174;DHT22;1093;51.424;11.764;2022-10-15T04:22:31;14.20;1.40
2174;DHT22;1093;51.424;11.764;2022-10-15T04:24:58;14.30;1.40
2174;DHT22;1093;51.424;11.764;2022-10-15T04:27:25;14.30;1.40
2174;DHT22;1093;51.424;11.764;2022-10-15T04:29:52;14.30;1.40
2174;DHT22;1093;51.424;11.764;2022-10-15T04:32:19;14.30;1.40
2174;DHT22;1093;51.424;11.764;2022-10-15T04:34:47;14.30;1.40
2174;DHT22;1093;51.424;11.764;2022-10-15T04:37:14;14.30;1.40
2174;DHT22;1093;51.424;11.764;2022-10-15T04:39:41;14.20;1.40
2174;DHT22;1093;51.424;11.764;2022-10-15T04:42:08;14.20;1.40
2174;DHT22;1093;51.424;11.764;2022-10-15T04:44:35;14.20;1.40
2174;DHT22;1093;51.424;11.764;2022-10-15T04:47:01;14.20;1.40
2174;DHT22;1093;51.424;11.764;2022-10-15T04:49:29;14.20;1.40
2174;DHT22;1093;51.424;11.764;2022-10-15T04:51:57;14.20;1.40
2174;DHT22;1093;51.424;11.764;2022-10-15T04:54:24;14.20;1.40
2174;DHT22;1093;51.424;11.764;2022-10-15T04:56:50;14.10;1.40
2174;DHT22;1093;51.424;11.764;2022-10-15T04:59:18;14.20;1.40
2174;DHT22;1093;51.424;11.764;2022-10-15T05:01:44;14.20;1.40
2174;DHT22;1093;51.424;11.764;2022-10-15T05:04:11;14.20;1.40
2174;DHT22;1093;51.424;11.764;2022-10-15T05:06:38;14.10;1.40
2174;DHT22;1093;51.424;11.764;2022-10-15T05:09:07;14.10;1.40
2174;DHT22;1093;51.424;11.764;2022-10-15T05:11:35;14.10;1.40
2174;DHT22;1093;51.424;11.764;2022-10-15T05:14:03;14.10;1.40
2174;DHT22;1093;51.424;11.764;2022-10-15T05:16:31;14.10;1.40
2174;DHT22;1093;51.424;11.764;2022-10-15T05:18:59;14.10;1.40
2174;DHT22;1093;51.424;11.764;2022-10-15T05:21:27;14.10;1.40
2174;DHT22;1093;51.424;11.764;2022-10-15T05:23:55;14.10;1.40
2174;DHT22;1093;51.424;11.764;2022-10-15T05:26:25;14.10;1.40
2174;DHT22;1093;51.424;11.764;2022-10-15T05:28:54;14.10;1.40
2174;DHT22;1093;51.424;11.764;2022-10-15T05:31:23;14.00;1.40
2174;DHT22;1093;51.424;11.764;2022-10-15T05:33:52;14.00;1.40
2174;DHT22;1093;51.424;11.764;2022-10-15T05:36:21;14.10;1.40
2174;DHT22;1093;51.424;11.764;2022-10-15T05:38:49;14.00;1.40
2174;DHT22;1093;51.424;11.764;2022-10-15T05:41:17;14.00;1.40
2174;DHT22;1093;51.424;11.764;2022-10-15T05:43:47;14.00;1.40
2174;DHT22;1093;51.424;11.764;2022-10-15T05:46:16;14.00;1.40
2174;DHT22;1093;51.424;11.764;2022-10-15T05:48:43;14.00;1.40
2174;DHT22;1093;51.424;11.764;2022-10-15T05:51:13;14.00;1.40
2174;DHT22;1093;51.424;11.764;2022-10-15T05:53:40;14.00;1.40
2174;DHT22;1093;51.424;11.764;2022-10-15T05:56:08;14.00;1.40
2174;DHT22;1093;51.424;11.764;2022-10-15T05:58:35;14.00;1.40
2174;DHT22;1093;51.424;11.764;2022-10-15T06:01:06;14.00;1.40
2174;DHT22;1093;51.424;11.764;2022-10-15T06:03:33;14.00;1.40
2174;DHT22;1093;51.424;11.764;2022-10-15T06:06:00;14.00;1.40
2174;DHT22;1093;51.424;11.764;2022-10-15T06:08:27;14.00;1.40
2174;DHT22;1093;51.424;11.764;2022-10-15T06:10:55;14.00;1.40
2174;DHT22;1093;51.424;11.764;2022-10-15T06:13:23;14.10;1.40
2174;DHT22;1093;51.424;11.764;2022-10-15T06:15:50;14.10;1.40
2174;DHT22;1093;51.424;11.764;2022-10-15T06:18:18;14.10;1.40
2174;DHT22;1093;51.424;11.764;2022-10-15T06:20:50;14.10;1.40
2174;DHT22;1093;51.424;11.764;2022-10-15T06:23:17;14.10;1.40
2174;DHT22;1093;51.424;11.764;2022-10-15T06:25:44;14.10;1.40
2174;DHT22;1093;51.424;11.764;2022-10-15T06:28:11;14.20;1.40
2174;DHT22;1093;51.424;11.764;2022-10-15T06:30:38;14.20;1.40
2174;DHT22;1093;51.424;11.764;2022-10-15T06:33:05;14.20;1.40
2174;DHT22;1093;51.424;11.764;2022-10-15T06:35:33;14.20;1.40
2174;DHT22;1093;51.424;11.764;2022-10-15T06:38:03;14.30;1.40
2174;DHT22;1093;51.424;11.764;2022-10-15T06:40:31;14.30;1.40
2174;DHT22;1093;51.424;11.764;2022-10-15T06:43:03;14.30;1.40
2174;DHT22;1093;51.424;11.764;2022-10-15T06:45:31;14.30;1.40
2174;DHT22;1093;51.424;11.764;2022-10-15T06:47:58;14.40;1.40
2174;DHT22;1093;51.424;11.764;2022-10-15T06:50:25;14.40;1.40
2174;DHT22;1093;51.424;11.764;2022-10-15T06:52:53;14.40;1.40
2174;DHT22;1093;51.424;11.764;2022-10-15T06:55:20;14.40;1.40
2174;DHT22;1093;51.424;11.764;2022-10-15T06:57:48;14.40;1.40
2174;DHT22;1093;51.424;11.764;2022-10-15T07:00:15;14.40;1.40
2174;DHT22;1093;51.424;11.764;2022-10-15T07:02:42;14.40;1.40
2174;DHT22;1093;51.424;11.764;2022-10-15T07:05:09;14.50;1.40
2174;DHT22;1093;51.424;11.764;2022-10-15T07:07:35;14.50;1.40
2174;DHT22;1093;51.424;11.764;2022-10-15T07:10:04;14.50;1.40
2174;DHT22;1093;51.424;11.764;2022-10-15T07:12:31;14.60;1.40
2174;DHT22;1093;51.424;11.764;2022-10-15T07:14:58;14.50;1.40
2174;DHT22;1093;51.424;11.764;2022-10-15T07:17:25;14.60;1.40
2174;DHT22;1093;51.424;11.764;2022-10-15T07:19:53;14.60;1.40
2174;DHT22;1093;51.424;11.764;2022-10-15T07:22:20;14.60;1.40
2174;DHT22;1093;51.424;11.764;2022-10-15T07:24:47;14.70;1.40
2174;DHT22;1093;51.424;11.764;2022-10-15T07:27:15;14.70;1.40
2174;DHT22;1093;51.424;11.764;2022-10-15T07:29:42;14.70;1.40
2174;DHT22;1093;51.424;11.764;2022-10-15T07:32:09;14.70;1.40
2174;DHT22;1093;51.424;11.764;2022-10-15T07:34:36;14.70;1.40
2174;DHT22;1093;51.424;11.764;2022-10-15T07:37:03;14.90;1.40
2174;DHT22;1093;51.424;11.764;2022-10-15T07:39:29;15.00;1.40
2174;DHT22;1093;51.424;11.764;2022-10-15T07:41:56;15.00;1.40
2174;DHT22;1093;51.424;11.764;2022-10-15T07:44:24;14.90;1.40
2174;DHT22;1093;51.424;11.764;2022-10-15T07:46:51;15.00;1.40
2174;DHT22;1093;51.424;11.764;2022-10-15T07:49:18;15.00;1.40
2174;DHT22;1093;51.424;11.764;2022-10-15T07:51:45;15.00;1.40
2174;DHT22;1093;51.424;11.764;2022-10-15T07:54:12;15.00;1.40
2174;DHT22;1093;51.424;11.764;2022-10-15T07:56:39;15.00;1.40
2174;DHT22;1093;51.424;11.764;2022-10-15T07:59:07;15.10;1.40
2174;DHT22;1093;51.424;11.764;2022-10-15T08:01:35;15.10;1.40
2174;DHT22;1093;51.424;11.764;2022-10-15T08:04:03;15.20;1.40
2174;DHT22;1093;51.424;11.764;2022-10-15T08:06:31;15.30;1.40
2174;DHT22;1093;51.424;11.764;2022-10-15T08:08:58;15.30;1.40
2174;DHT22;1093;51.424;11.764;2022-10-15T08:11:25;15.30;1.40
2174;DHT22;1093;51.424;11.764;2022-10-15T08:13:52;15.40;1.40
2174;DHT22;1093;51.424;11.764;2022-10-15T08:16:19;15.40;1.40
2174;DHT22;1093;51.424;11.764;2022-10-15T08:18:47;15.50;1.40
2174;DHT22;1093;51.424;11.764;2022-10-15T08:21:14;15.50;1.40
2174;DHT22;1093;51.424;11.764;2022-10-15T08:23:40;15.60;1.40
2174;DHT22;1093;51.424;11.764;2022-10-15T08:26:08;15.60;1.40
2174;DHT22;1093;51.424;11.764;2022-10-15T08:28:35;15.60;1.40
2174;DHT22;1093;51.424;11.764;2022-10-15T08:31:02;15.70;1.40
2174;DHT22;1093;51.424;11.764;2022-10-15T08:33:29;15.80;1.40
2174;DHT22;1093;51.424;11.764;2022-10-15T08:35:58;15.80;1.40
2174;DHT22;1093;51.424;11.764;2022-10-15T08:38:25;15.80;1.40
2174;DHT22;1093;51.424;11.764;2022-10-15T08:40:53;15.90;1.40
2174;DHT22;1093;51.424;11.764;2022-10-15T08:43:23;16.00;1.40
2174;DHT22;1093;51.424;11.764;2022-10-15T08:45:55;16.10;1.40
2174;DHT22;1093;51.424;11.764;2022-10-15T08:48:27;16.20;1.40
2174;DHT22;1093;51.424;11.764;2022-10-15T08:51:00;16.30;1.40
2174;DHT22;1093;51.424;11.764;2022-10-15T08:53:28;16.30;1.40
2174;DHT22;1093;51.424;11.764;2022-10-15T08:56:03;16.50;1.40
2174;DHT22;1093;51.424;11.764;2022-10-15T08:58:42;16.50;1.40
2174;DHT22;1093;51.424;11.764;2022-10-15T09:01:16;16.60;1.40
2174;DHT22;1093;51.424;11.764;2022-10-15T09:03:51;16.60;1.40
2174;DHT22;1093;51.424;11.764;2022-10-15T09:06:25;16.70;1.40
2174;DHT22;1093;51.424;11.764;2022-10-15T09:08:58;16.80;1.40
2174;DHT22;1093;51.424;11.764;2022-10-15T09:11:37;16.90;1.40
2174;DHT22;1093;51.424;11.764;2022-10-15T09:14:10;16.90;1.40
2174;DHT22;1093;51.424;11.764;2022-10-15T09:16:40;16.90;1.40
2174;DHT22;1093;51.424;11.764;2022-10-15T09:19:13;16.90;1.40
2174;DHT22;1093;51.424;11.764;2022-10-15T09:21:45;17.00;1.40
2174;DHT22;1093;51.424;11.764;2022-10-15T09:24:19;17.10;1.40
2174;DHT22;1093;51.424;11.764;2022-10-15T09:26:53;17.10;1.40
2174;DHT22;1093;51.424;11.764;2022-10-15T09:29:26;17.20;1.40
2174;DHT22;1093;51.424;11.764;2022-10-15T09:32:03;17.20;1.40
2174;DHT22;1093;51.424;11.764;2022-10-15T09:34:36;17.30;1.40
2174;DHT22;1093;51.424;11.764;2022-10-15T09:37:13;17.40;1.40
2174;DHT22;1093;51.424;11.764;2022-10-15T09:39:51;17.40;1.40
2174;DHT22;1093;51.424;11.764;2022-10-15T09:42:26;17.40;1.40
2174;DHT22;1093;51.424;11.764;2022-10-15T09:44:58;17.50;1.40
2174;DHT22;1093;51.424;11.764;2022-10-15T09:47:27;17.50;1.40
2174;DHT22;1093;51.424;11.764;2022-10-15T09:49:54;17.60;1.40
2174;DHT22;1093;51.424;11.764;2022-10-15T09:52:33;17.70;1.40
2174;DHT22;1093;51.424;11.764;2022-10-15T09:55:09;17.70;1.40
2174;DHT22;1093;51.424;11.764;2022-10-15T09:57:45;17.80;1.40
2174;DHT22;1093;51.424;11.764;2022-10-15T10:00:12;17.90;1.40
2174;DHT22;1093;51.424;11.764;2022-10-15T10:02:40;17.90;1.40
2174;DHT22;1093;51.424;11.764;2022-10-15T10:05:28;17.90;1.40
2174;DHT22;1093;51.424;11.764;2022-10-15T10:08:08;18.00;1.40
2174;DHT22;1093;51.424;11.764;2022-10-15T10:10:36;18.10;1.40
2174;DHT22;1093;51.424;11.764;2022-10-15T10:13:06;18.30;1.40
2174;DHT22;1093;51.424;11.764;2022-10-15T10:15:36;18.30;1.40
2174;DHT22;1093;51.424;11.764;2022-10-15T10:18:05;18.30;1.40
2174;DHT22;1093;51.424;11.764;2022-10-15T10:20:33;18.40;1.40
2174;DHT22;1093;51.424;11.764;2022-10-15T10:23:02;18.50;1.40
2174;DHT22;1093;51.424;11.764;2022-10-15T10:25:47;18.50;1.40
2174;DHT22;1093;51.424;11.764;2022-10-15T10:28:18;18.50;1.40
2174;DHT22;1093;51.424;11.764;2022-10-15T10:30:52;18.50;1.40
2174;DHT22;1093;51.424;11.764;2022-10-15T10:33:27;18.60;1.40
2174;DHT22;1093;51.424;11.764;2022-10-15T10:35:55;18.50;1.40
2174;DHT22;1093;51.424;11.764;2022-10-15T10:38:24;18.60;1.40
2174;DHT22;1093;51.424;11.764;2022-10-15T10:40:55;18.50;1.40
2174;DHT22;1093;51.424;11.764;2022-10-15T10:43:25;18.60;1.40
2174;DHT22;1093;51.424;11.764;2022-10-15T10:45:57;18.60;1.40
2174;DHT22;1093;51.424;11.764;2022-10-15T10:48:26;18.60;1.40
2174;DHT22;1093;51.424;11.764;2022-10-15T10:51:09;18.70;1.40
2174;DHT22;1093;51.424;11.764;2022-10-15T10:53:49;18.70;1.40
2174;DHT22;1093;51.424;11.764;2022-10-15T10:56:22;18.70;1.40
2174;DHT22;1093;51.424;11.764;2022-10-15T10:58:55;18.70;1.40
2174;DHT22;1093;51.424;11.764;2022-10-15T11:01:23;18.70;1.40
2174;DHT22;1093;51.424;11.764;2022-10-15T11:03:50;18.70;1.40
2174;DHT22;1093;51.424;11.764;2022-10-15T11:06:35;18.60;1.40
2174;DHT22;1093;51.424;11.764;2022-10-15T11:09:16;18.60;1.40
2174;DHT22;1093;51.424;11.764;2022-10-15T11:11:55;18.60;1.40
2174;DHT22;1093;51.424;11.764;2022-10-15T11:14:31;18.50;1.40
2174;DHT22;1093;51.424;11.764;2022-10-15T11:17:04;18.60;1.40
2174;DHT22;1093;51.424;11.764;2022-10-15T11:19:39;18.60;1.40
2174;DHT22;1093;51.424;11.764;2022-10-15T11:22:23;18.60;1.40
2174;DHT22;1093;51.424;11.764;2022-10-15T11:25:00;18.60;1.40
2174;DHT22;1093;51.424;11.764;2022-10-15T11:27:45;18.70;1.40
2174;DHT22;1093;51.424;11.764;2022-10-15T11:30:26;18.80;1.40
2174;DHT22;1093;51.424;11.764;2022-10-15T11:33:05;18.80;1.40
2174;DHT22;1093;51.424;11.764;2022-10-15T11:35:40;18.90;1.40
2174;DHT22;1093;51.424;11.764;2022-10-15T11:38:16;18.90;1.40
2174;DHT22;1093;51.424;11.764;2022-10-15T11:40:50;19.00;1.40
2174;DHT22;1093;51.424;11.764;2022-10-15T11:43:35;19.10;1.40
2174;DHT22;1093;51.424;11.764;2022-10-15T11:46:12;19.20;1.40
2174;DHT22;1093;51.424;11.764;2022-10-15T11:48:54;19.30;1.40
2174;DHT22;1093;51.424;11.764;2022-10-15T11:51:32;19.40;1.40
2174;DHT22;1093;51.424;11.764;2022-10-15T11:54:15;19.50;1.40
2174;DHT22;1093;51.424;11.764;2022-10-15T11:56:46;19.60;1.40
2174;DHT22;1093;51.424;11.764;2022-10-15T11:59:22;19.70;1.40
2174;DHT22;1093;51.424;11.764;2022-10-15T12:01:56;19.70;1.40
2174;DHT22;1093;51.424;11.764;2022-10-15T12:04:29;19.80;1.40
2174;DHT22;1093;51.424;11.764;2022-10-15T12:07:00;19.70;1.40
2174;DHT22;1093;51.424;11.764;2022-10-15T12:09:33;19.70;1.40
2174;DHT22;1093;51.424;11.764;2022-10-15T12:12:05;19.70;1.40
2174;DHT22;1093;51.424;11.764;2022-10-15T12:14:40;19.70;1.40
2174;DHT22;1093;51.424;11.764;2022-10-15T12:17:15;19.80;1.40
2174;DHT22;1093;51.424;11.764;2022-10-15T12:19:47;19.70;1.40
2174;DHT22;1093;51.424;11.764;2022-10-15T12:22:31;19.90;1.40
2174;DHT22;1093;51.424;11.764;2022-10-15T12:24:58;19.90;1.40
2174;DHT22;1093;51.424;11.764;2022-10-15T12:27:28;20.00;1.40
2174;DHT22;1093;51.424;11.764;2022-10-15T12:30:28;20.10;1.40
2174;DHT22;1093;51.424;11.764;2022-10-15T12:32:59;20.20;1.40
2174;DHT22;1093;51.424;11.764;2022-10-15T12:35:36;20.20;1.40
2174;DHT22;1093;51.424;11.764;2022-10-15T12:38:24;20.20;1.40
2174;DHT22;1093;51.424;11.764;2022-10-15T12:41:01;20.20;1.40
2174;DHT22;1093;51.424;11.764;2022-10-15T12:43:30;20.20;1.40
2174;DHT22;1093;51.424;11.764;2022-10-15T12:46:00;20.20;1.40
2174;DHT22;1093;51.424;11.764;2022-10-15T12:48:31;20.20;1.40
2174;DHT22;1093;51.424;11.764;2022-10-15T12:54:33;20.10;1.40
2174;DHT22;1093;51.424;11.764;2022-10-15T12:57:00;20.20;1.40
2174;DHT22;1093;51.424;11.764;2022-10-15T13:02:44;20.20;1.40
2174;DHT22;1093;51.424;11.764;2022-10-15T13:05:23;20.10;1.40
2174;DHT22;1093;51.424;11.764;2022-10-15T13:07:51;20.00;1.40
2174;DHT22;1093;51.424;11.764;2022-10-15T13:10:23;19.90;1.40
2174;DHT22;1093;51.424;11.764;2022-10-15T13:12:52;20.00;1.40
2174;DHT22;1093;51.424;11.764;2022-10-15T13:15:22;20.00;1.40
2174;DHT22;1093;51.424;11.764;2022-10-15T13:17:52;20.00;1.40
2174;DHT22;1093;51.424;11.764;2022-10-15T13:20:38;20.00;1.40
2174;DHT22;1093;51.424;11.764;2022-10-15T13:23:07;19.90;1.40
2174;DHT22;1093;51.424;11.764;2022-10-15T13:25:34;19.90;1.40
2174;DHT22;1093;51.424;11.764;2022-10-15T13:28:01;20.00;1.40
2174;DHT22;1093;51.424;11.764;2022-10-15T13:30:47;20.00;1.40
2174;DHT22;1093;51.424;11.764;2022-10-15T13:33:16;20.00;1.40
2174;DHT22;1093;51.424;11.764;2022-10-15T13:35:43;20.10;1.40
2174;DHT22;1093;51.424;11.764;2022-10-15T13:38:19;20.10;1.40
2174;DHT22;1093;51.424;11.764;2022-10-15T13:40:48;20.20;1.40
2174;DHT22;1093;51.424;11.764;2022-10-15T13:43:17;20.20;1.40
2174;DHT22;1093;51.424;11.764;2022-10-15T13:45:47;20.10;1.40
2174;DHT22;1093;51.424;11.764;2022-10-15T13:48:20;20.10;1.40
2174;DHT22;1093;51.424;11.764;2022-10-15T13:50:49;20.10;1.40
2174;DHT22;1093;51.424;11.764;2022-10-15T13:53:21;20.00;1.40
2174;DHT22;1093;51.424;11.764;2022-10-15T13:55:51;20.00;1.40
2174;DHT22;1093;51.424;11.764;2022-10-15T13:58:21;20.00;1.40
2174;DHT22;1093;51.424;11.764;2022-10-15T14:00:52;20.00;1.40
2174;DHT22;1093;51.424;11.764;2022-10-15T14:03:23;19.90;1.40
2174;DHT22;1093;51.424;11.764;2022-10-15T14:05:52;19.90;1.40
2174;DHT22;1093;51.424;11.764;2022-10-15T14:08:25;19.90;1.40
2174;DHT22;1093;51.424;11.764;2022-10-15T14:10:54;19.90;1.40
2174;DHT22;1093;51.424;11.764;2022-10-15T14:13:21;19.80;1.40
2174;DHT22;1093;51.424;11.764;2022-10-15T14:15:53;19.80;1.40
2174;DHT22;1093;51.424;11.764;2022-10-15T14:18:30;19.70;1.40
2174;DHT22;1093;51.424;11.764;2022-10-15T14:20:59;19.70;1.40
2174;DHT22;1093;51.424;11.764;2022-10-15T14:23:26;19.70;1.40
2174;DHT22;1093;51.424;11.764;2022-10-15T14:25:56;19.70;1.40
2174;DHT22;1093;51.424;11.764;2022-10-15T14:28:24;19.70;1.40
2174;DHT22;1093;51.424;11.764;2022-10-15T14:30:51;19.70;1.40
2174;DHT22;1093;51.424;11.764;2022-10-15T14:33:39;19.60;1.40
2174;DHT22;1093;51.424;11.764;2022-10-15T14:36:10;19.60;1.40
2174;DHT22;1093;51.424;11.764;2022-10-15T14:38:38;19.70;1.40
2174;DHT22;1093;51.424;11.764;2022-10-15T14:41:17;19.60;1.40
2174;DHT22;1093;51.424;11.764;2022-10-15T14:43:59;19.70;1.40
2174;DHT22;1093;51.424;11.764;2022-10-15T14:46:34;19.60;1.40
2174;DHT22;1093;51.424;11.764;2022-10-15T14:49:03;19.60;1.40
2174;DHT22;1093;51.424;11.764;2022-10-15T14:51:39;19.70;1.40
2174;DHT22;1093;51.424;11.764;2022-10-15T14:54:11;19.70;1.40
2174;DHT22;1093;51.424;11.764;2022-10-15T14:56:40;19.80;1.40
2174;DHT22;1093;51.424;11.764;2022-10-15T14:59:16;19.70;1.40
2174;DHT22;1093;51.424;11.764;2022-10-15T15:01:51;19.70;1.40
2174;DHT22;1093;51.424;11.764;2022-10-15T15:04:34;19.70;1.40
2174;DHT22;1093;51.424;11.764;2022-10-15T15:09:51;19.60;1.40
2174;DHT22;1093;51.424;11.764;2022-10-15T15:12:24;19.60;1.40
2174;DHT22;1093;51.424;11.764;2022-10-15T15:14:51;19.50;1.40
2174;DHT22;1093;51.424;11.764;2022-10-15T15:17:20;19.50;1.40
2174;DHT22;1093;51.424;11.764;2022-10-15T15:19:50;19.50;1.40
2174;DHT22;1093;51.424;11.764;2022-10-15T15:22:24;19.50;1.40
2174;DHT22;1093;51.424;11.764;2022-10-15T15:24:52;19.50;1.40
2174;DHT22;1093;51.424;11.764;2022-10-15T15:27:23;19.50;1.40
2174;DHT22;1093;51.424;11.764;2022-10-15T15:29:51;19.50;1.40
2174;DHT22;1093;51.424;11.764;2022-10-15T15:32:18;19.50;1.40
2174;DHT22;1093;51.424;11.764;2022-10-15T15:34:47;19.40;1.40
2174;DHT22;1093;51.424;11.764;2022-10-15T15:37:17;19.40;1.40
2174;DHT22;1093;51.424;11.764;2022-10-15T15:39:44;19.40;1.40
2174;DHT22;1093;51.424;11.764;2022-10-15T15:42:12;19.40;1.40
2174;DHT22;1093;51.424;11.764;2022-10-15T15:44:39;19.40;1.40
2174;DHT22;1093;51.424;11.764;2022-10-15T15:47:07;19.30;1.40
2174;DHT22;1093;51.424;11.764;2022-10-15T15:49:34;19.40;1.40
2174;DHT22;1093;51.424;11.764;2022-10-15T15:52:02;19.30;1.40
2174;DHT22;1093;51.424;11.764;2022-10-15T15:54:30;19.30;1.40
2174;DHT22;1093;51.424;11.764;2022-10-15T15:56:57;19.40;1.40
2174;DHT22;1093;51.424;11.764;2022-10-15T15:59:25;19.40;1.40
2174;DHT22;1093;51.424;11.764;2022-10-15T16:01:52;19.40;1.40
2174;DHT22;1093;51.424;11.764;2022-10-15T16:04:19;19.30;1.40
2174;DHT22;1093;51.424;11.764;2022-10-15T16:06:46;19.20;1.40
2174;DHT22;1093;51.424;11.764;2022-10-15T16:09:16;19.20;1.40
2174;DHT22;1093;51.424;11.764;2022-10-15T16:11:43;19.20;1.40
2174;DHT22;1093;51.424;11.764;2022-10-15T16:14:11;19.20;1.40
2174;DHT22;1093;51.424;11.764;2022-10-15T16:16:37;19.20;1.40
2174;DHT22;1093;51.424;11.764;2022-10-15T16:19:05;19.10;1.40
2174;DHT22;1093;51.424;11.764;2022-10-15T16:21:32;19.10;1.40
2174;DHT22;1093;51.424;11.764;2022-10-15T16:23:59;19.00;1.40
2174;DHT22;1093;51.424;11.764;2022-10-15T16:26:28;19.00;1.40
2174;DHT22;1093;51.424;11.764;2022-10-15T16:28:55;19.00;1.40
2174;DHT22;1093;51.424;11.764;2022-10-15T16:31:23;18.90;1.40
2174;DHT22;1093;51.424;11.764;2022-10-15T16:33:50;18.80;1.40
2174;DHT22;1093;51.424;11.764;2022-10-15T16:36:17;18.70;1.40